sensor_id;sensor_type;location;lat;lon;timestamp;P1;durP1;ratioP1;P2;durP2;ratioP2
21567;SDS011;10944;42.590;12.630;2023-03-05T00:01:51;38.07;;;20.33;;
21567;SDS011;10944;42.590;12.630;2023-03-05T00:04:17;37.43;;;20.90;;
21567;SDS011;10944;42.590;12.630;2023-03-05T00:06:43;46.63;;;20.87;;
21567;SDS011;10944;42.590;12.630;2023-03-05T00:09:08;38.03;;;20.63;;
21567;SDS011;10944;42.590;12.630;2023-03-05T00:11:34;39.47;;;21.83;;
21567;SDS011;10944;42.590;12.630;2023-03-05T00:14:01;40.43;;;20.87;;
21567;SDS011;10944;42.590;12.630;2023-03-05T00:16:28;41.23;;;21.23;;
21567;SDS011;10944;42.590;12.630;2023-03-05T00:18:55;41.40;;;22.03;;
21567;SDS011;10944;42.590;12.630;2023-03-05T00:23:49;43.83;;;22.67;;
21567;SDS011;10944;42.590;12.630;2023-03-05T00:26:16;40.93;;;21.03;;
21567;SDS011;10944;42.590;12.630;2023-03-05T00:28:46;45.00;;;22.77;;
21567;SDS011;10944;42.590;12.630;2023-03-05T00:31:14;41.80;;;22.20;;
21567;SDS011;10944;42.590;12.630;2023-03-05T00:33:41;40.63;;;21.17;;
21567;SDS011;10944;42.590;12.630;2023-03-05T00:36:07;41.10;;;21.30;;
21567;SDS011;10944;42.590;12.630;2023-03-05T00:38:34;42.17;;;21.27;;
21567;SDS011;10944;42.590;12.630;2023-03-05T00:41:00;40.87;;;21.13;;
21567;SDS011;10944;42.590;12.630;2023-03-05T00:43:26;38.70;;;20.90;;
21567;SDS011;10944;42.590;12.630;2023-03-05T00:45:52;36.03;;;19.13;;
21567;SDS011;10944;42.590;12.630;2023-03-05T00:48:18;37.43;;;19.83;;
21567;SDS011;10944;42.590;12.630;2023-03-05T00:50:43;38.60;;;20.83;;
21567;SDS011;10944;42.590;12.630;2023-03-05T00:53:10;40.93;;;19.80;;
21567;SDS011;10944;42.590;12.630;2023-03-05T00:55:35;38.33;;;19.70;;
21567;SDS011;10944;42.590;12.630;2023-03-05T00:58:01;38.30;;;19.90;;
21567;SDS011;10944;42.590;12.630;2023-03-05T01:00:27;37.37;;;18.97;;
21567;SDS011;10944;42.590;12.630;2023-03-05T01:02:53;36.83;;;18.90;;
21567;SDS011;10944;42.590;12.630;2023-03-05T01:05:18;34.53;;;18.40;;
21567;SDS011;10944;42.590;12.630;2023-03-05T01:07:44;37.93;;;19.50;;
21567;SDS011;10944;42.590;12.630;2023-03-05T01:10:11;38.83;;;19.93;;
21567;SDS011;10944;42.590;12.630;2023-03-05T01:12:37;40.80;;;20.30;;
21567;SDS011;10944;42.590;12.630;2023-03-05T01:15:03;41.13;;;22.33;;
21567;SDS011;10944;42.590;12.630;2023-03-05T01:17:30;43.73;;;22.17;;
21567;SDS011;10944;42.590;12.630;2023-03-05T01:19:56;39.27;;;20.50;;
21567;SDS011;10944;42.590;12.630;2023-03-05T01:22:21;37.97;;;18.97;;
21567;SDS011;10944;42.590;12.630;2023-03-05T01:24:47;32.43;;;16.83;;
21567;SDS011;10944;42.590;12.630;2023-03-05T01:27:13;34.07;;;18.03;;
21567;SDS011;10944;42.590;12.630;2023-03-05T01:29:38;32.97;;;17.13;;
21567;SDS011;10944;42.590;12.630;2023-03-05T01:32:04;33.73;;;18.13;;
21567;SDS011;10944;42.590;12.630;2023-03-05T01:34:30;33.33;;;17.90;;
21567;SDS011;10944;42.590;12.630;2023-03-05T01:36:56;36.47;;;18.63;;
21567;SDS011;10944;42.590;12.630;2023-03-05T01:39:21;35.97;;;19.57;;
21567;SDS011;10944;42.590;12.630;2023-03-05T01:41:47;35.23;;;18.60;;
21567;SDS011;10944;42.590;12.630;2023-03-05T01:44:20;35.13;;;17.33;;
21567;SDS011;10944;42.590;12.630;2023-03-05T01:46:47;31.20;;;15.40;;
21567;SDS011;10944;42.590;12.630;2023-03-05T01:49:14;33.17;;;15.73;;
21567;SDS011;10944;42.590;12.630;2023-03-05T01:51:56;28.77;;;15.83;;
21567;SDS011;10944;42.590;12.630;2023-03-05T01:59:50;30.17;;;15.67;;
21567;SDS011;10944;42.590;12.630;2023-03-05T02:02:19;30.80;;;16.93;;
21567;SDS011;10944;42.590;12.630;2023-03-05T02:04:49;34.97;;;17.07;;
21567;SDS011;10944;42.590;12.630;2023-03-05T02:07:35;35.77;;;17.80;;
21567;SDS011;10944;42.590;12.630;2023-03-05T02:10:21;37.93;;;16.77;;
21567;SDS011;10944;42.590;12.630;2023-03-05T02:12:49;32.40;;;18.00;;
21567;SDS011;10944;42.590;12.630;2023-03-05T02:15:17;35.23;;;17.67;;
21567;SDS011;10944;42.590;12.630;2023-03-05T02:17:43;38.10;;;17.87;;
21567;SDS011;10944;42.590;12.630;2023-03-05T02:20:14;33.77;;;17.10;;
21567;SDS011;10944;42.590;12.630;2023-03-05T02:22:41;28.37;;;14.77;;
21567;SDS011;10944;42.590;12.630;2023-03-05T02:25:11;29.50;;;15.97;;
21567;SDS011;10944;42.590;12.630;2023-03-05T02:27:59;25.93;;;14.57;;
21567;SDS011;10944;42.590;12.630;2023-03-05T02:30:29;30.23;;;15.47;;
21567;SDS011;10944;42.590;12.630;2023-03-05T02:32:55;30.60;;;15.97;;
21567;SDS011;10944;42.590;12.630;2023-03-05T02:35:21;28.67;;;15.70;;
21567;SDS011;10944;42.590;12.630;2023-03-05T02:37:47;29.37;;;16.77;;
21567;SDS011;10944;42.590;12.630;2023-03-05T02:40:13;32.63;;;16.90;;
21567;SDS011;10944;42.590;12.630;2023-03-05T02:42:39;31.33;;;17.43;;
21567;SDS011;10944;42.590;12.630;2023-03-05T02:45:05;34.50;;;18.43;;
21567;SDS011;10944;42.590;12.630;2023-03-05T02:47:31;31.23;;;17.07;;
21567;SDS011;10944;42.590;12.630;2023-03-05T02:49:57;30.77;;;16.87;;
21567;SDS011;10944;42.590;12.630;2023-03-05T02:52:22;29.70;;;15.90;;
21567;SDS011;10944;42.590;12.630;2023-03-05T02:54:49;33.77;;;16.27;;
21567;SDS011;10944;42.590;12.630;2023-03-05T02:57:16;30.93;;;16.50;;
21567;SDS011;10944;42.590;12.630;2023-03-05T02:59:43;32.93;;;17.53;;
21567;SDS011;10944;42.590;12.630;2023-03-05T03:02:10;33.87;;;18.13;;
21567;SDS011;10944;42.590;12.630;2023-03-05T03:04:35;33.77;;;17.63;;
21567;SDS011;10944;42.590;12.630;2023-03-05T03:07:01;36.23;;;18.03;;
21567;SDS011;10944;42.590;12.630;2023-03-05T03:09:27;40.87;;;19.17;;
21567;SDS011;10944;42.590;12.630;2023-03-05T03:11:53;35.87;;;18.37;;
21567;SDS011;10944;42.590;12.630;2023-03-05T03:14:19;35.70;;;18.57;;
21567;SDS011;10944;42.590;12.630;2023-03-05T03:16:45;38.80;;;19.07;;
21567;SDS011;10944;42.590;12.630;2023-03-05T03:19:11;36.20;;;19.60;;
21567;SDS011;10944;42.590;12.630;2023-03-05T03:21:37;34.20;;;19.03;;
21567;SDS011;10944;42.590;12.630;2023-03-05T03:24:03;40.07;;;21.00;;
21567;SDS011;10944;42.590;12.630;2023-03-05T03:26:28;45.97;;;20.07;;
21567;SDS011;10944;42.590;12.630;2023-03-05T03:28:55;41.50;;;20.20;;
21567;SDS011;10944;42.590;12.630;2023-03-05T03:31:22;40.67;;;20.50;;
21567;SDS011;10944;42.590;12.630;2023-03-05T03:33:48;36.63;;;17.30;;
21567;SDS011;10944;42.590;12.630;2023-03-05T03:36:14;33.63;;;17.27;;
21567;SDS011;10944;42.590;12.630;2023-03-05T03:38:39;31.50;;;16.27;;
21567;SDS011;10944;42.590;12.630;2023-03-05T03:41:06;33.80;;;16.97;;
21567;SDS011;10944;42.590;12.630;2023-03-05T03:43:33;35.17;;;17.80;;
21567;SDS011;10944;42.590;12.630;2023-03-05T03:45:59;35.90;;;18.30;;
21567;SDS011;10944;42.590;12.630;2023-03-05T03:48:29;35.03;;;18.17;;
21567;SDS011;10944;42.590;12.630;2023-03-05T03:50:54;33.50;;;17.87;;
21567;SDS011;10944;42.590;12.630;2023-03-05T03:53:20;35.97;;;17.67;;
21567;SDS011;10944;42.590;12.630;2023-03-05T03:55:46;31.30;;;17.37;;
21567;SDS011;10944;42.590;12.630;2023-03-05T03:58:11;35.40;;;17.67;;
21567;SDS011;10944;42.590;12.630;2023-03-05T04:00:39;34.87;;;17.33;;
21567;SDS011;10944;42.590;12.630;2023-03-05T04:03:05;38.83;;;17.57;;
21567;SDS011;10944;42.590;12.630;2023-03-05T04:05:32;33.77;;;17.90;;
21567;SDS011;10944;42.590;12.630;2023-03-05T04:07:57;32.63;;;17.47;;
21567;SDS011;10944;42.590;12.630;2023-03-05T04:10:24;36.77;;;19.27;;
21567;SDS011;10944;42.590;12.630;2023-03-05T04:12:50;34.80;;;18.50;;
21567;SDS011;10944;42.590;12.630;2023-03-05T04:15:16;38.73;;;19.00;;
21567;SDS011;10944;42.590;12.630;2023-03-05T04:17:42;34.87;;;17.83;;
21567;SDS011;10944;42.590;12.630;2023-03-05T04:20:08;37.83;;;18.70;;
21567;SDS011;10944;42.590;12.630;2023-03-05T04:22:35;34.43;;;18.03;;
21567;SDS011;10944;42.590;12.630;2023-03-05T04:25:02;35.47;;;17.73;;
21567;SDS011;10944;42.590;12.630;2023-03-05T04:27:31;32.00;;;16.37;;
21567;SDS011;10944;42.590;12.630;2023-03-05T04:29:58;27.60;;;14.73;;
21567;SDS011;10944;42.590;12.630;2023-03-05T04:32:24;33.40;;;16.87;;
21567;SDS011;10944;42.590;12.630;2023-03-05T04:34:54;31.10;;;15.80;;
21567;SDS011;10944;42.590;12.630;2023-03-05T04:37:20;35.63;;;16.27;;
21567;SDS011;10944;42.590;12.630;2023-03-05T04:39:46;33.43;;;16.73;;
21567;SDS011;10944;42.590;12.630;2023-03-05T04:42:12;31.23;;;16.60;;
21567;SDS011;10944;42.590;12.630;2023-03-05T04:44:37;31.30;;;16.80;;
21567;SDS011;10944;42.590;12.630;2023-03-05T04:47:03;32.83;;;17.40;;
21567;SDS011;10944;42.590;12.630;2023-03-05T04:49:29;37.63;;;18.00;;
21567;SDS011;10944;42.590;12.630;2023-03-05T04:51:55;34.03;;;17.57;;
21567;SDS011;10944;42.590;12.630;2023-03-05T04:54:22;36.00;;;18.93;;
21567;SDS011;10944;42.590;12.630;2023-03-05T04:56:48;35.37;;;19.07;;
21567;SDS011;10944;42.590;12.630;2023-03-05T04:59:14;37.53;;;19.63;;
21567;SDS011;10944;42.590;12.630;2023-03-05T05:01:40;39.00;;;20.20;;
21567;SDS011;10944;42.590;12.630;2023-03-05T05:04:07;42.03;;;20.77;;
21567;SDS011;10944;42.590;12.630;2023-03-05T05:06:32;42.00;;;20.47;;
21567;SDS011;10944;42.590;12.630;2023-03-05T05:08:58;43.93;;;20.93;;
21567;SDS011;10944;42.590;12.630;2023-03-05T05:11:24;40.27;;;20.63;;
21567;SDS011;10944;42.590;12.630;2023-03-05T05:13:50;40.53;;;20.90;;
21567;SDS011;10944;42.590;12.630;2023-03-05T05:16:15;38.50;;;20.23;;
21567;SDS011;10944;42.590;12.630;2023-03-05T05:18:41;36.30;;;20.10;;
21567;SDS011;10944;42.590;12.630;2023-03-05T05:21:07;39.00;;;19.57;;
21567;SDS011;10944;42.590;12.630;2023-03-05T05:23:34;38.67;;;19.80;;
21567;SDS011;10944;42.590;12.630;2023-03-05T05:26:01;39.27;;;20.20;;
21567;SDS011;10944;42.590;12.630;2023-03-05T05:28:28;37.70;;;19.73;;
21567;SDS011;10944;42.590;12.630;2023-03-05T05:30:54;39.57;;;19.37;;
21567;SDS011;10944;42.590;12.630;2023-03-05T05:33:20;35.63;;;18.87;;
21567;SDS011;10944;42.590;12.630;2023-03-05T05:35:46;34.93;;;19.03;;
21567;SDS011;10944;42.590;12.630;2023-03-05T05:38:12;41.33;;;19.13;;
21567;SDS011;10944;42.590;12.630;2023-03-05T05:40:38;40.37;;;19.20;;
21567;SDS011;10944;42.590;12.630;2023-03-05T05:43:04;35.90;;;18.63;;
21567;SDS011;10944;42.590;12.630;2023-03-05T05:45:30;35.23;;;18.67;;
21567;SDS011;10944;42.590;12.630;2023-03-05T05:47:56;43.07;;;20.73;;
21567;SDS011;10944;42.590;12.630;2023-03-05T05:50:22;39.50;;;20.27;;
21567;SDS011;10944;42.590;12.630;2023-03-05T05:52:49;38.40;;;20.40;;
21567;SDS011;10944;42.590;12.630;2023-03-05T05:55:16;39.80;;;21.20;;
21567;SDS011;10944;42.590;12.630;2023-03-05T05:57:42;47.27;;;23.30;;
21567;SDS011;10944;42.590;12.630;2023-03-05T06:00:08;46.93;;;25.67;;
21567;SDS011;10944;42.590;12.630;2023-03-05T06:02:41;45.03;;;22.30;;
21567;SDS011;10944;42.590;12.630;2023-03-05T06:05:09;40.00;;;19.73;;
21567;SDS011;10944;42.590;12.630;2023-03-05T06:07:37;37.40;;;18.37;;
21567;SDS011;10944;42.590;12.630;2023-03-05T06:10:03;34.57;;;17.90;;
21567;SDS011;10944;42.590;12.630;2023-03-05T06:12:29;36.00;;;17.67;;
21567;SDS011;10944;42.590;12.630;2023-03-05T06:14:55;37.67;;;19.50;;
21567;SDS011;10944;42.590;12.630;2023-03-05T06:17:21;36.77;;;19.30;;
21567;SDS011;10944;42.590;12.630;2023-03-05T06:19:46;41.90;;;19.57;;
21567;SDS011;10944;42.590;12.630;2023-03-05T06:22:12;36.03;;;19.37;;
21567;SDS011;10944;42.590;12.630;2023-03-05T06:24:38;38.20;;;18.57;;
21567;SDS011;10944;42.590;12.630;2023-03-05T06:27:04;35.50;;;18.47;;
21567;SDS011;10944;42.590;12.630;2023-03-05T06:29:30;35.03;;;18.53;;
21567;SDS011;10944;42.590;12.630;2023-03-05T06:31:56;32.40;;;17.57;;
21567;SDS011;10944;42.590;12.630;2023-03-05T06:34:21;37.73;;;17.93;;
21567;SDS011;10944;42.590;12.630;2023-03-05T06:36:47;29.77;;;16.43;;
21567;SDS011;10944;42.590;12.630;2023-03-05T06:39:13;30.60;;;16.00;;
21567;SDS011;10944;42.590;12.630;2023-03-05T06:41:39;31.83;;;16.83;;
21567;SDS011;10944;42.590;12.630;2023-03-05T06:44:05;32.10;;;18.23;;
21567;SDS011;10944;42.590;12.630;2023-03-05T06:46:31;33.67;;;18.20;;
21567;SDS011;10944;42.590;12.630;2023-03-05T06:49:00;28.87;;;16.07;;
21567;SDS011;10944;42.590;12.630;2023-03-05T06:51:31;29.90;;;15.97;;
21567;SDS011;10944;42.590;12.630;2023-03-05T06:54:00;31.83;;;16.20;;
21567;SDS011;10944;42.590;12.630;2023-03-05T06:56:29;27.03;;;15.50;;
21567;SDS011;10944;42.590;12.630;2023-03-05T06:58:56;30.73;;;15.87;;
21567;SDS011;10944;42.590;12.630;2023-03-05T07:01:21;28.80;;;15.73;;
21567;SDS011;10944;42.590;12.630;2023-03-05T07:03:51;31.37;;;15.30;;
21567;SDS011;10944;42.590;12.630;2023-03-05T07:06:17;33.40;;;16.73;;
21567;SDS011;10944;42.590;12.630;2023-03-05T07:08:44;29.47;;;16.53;;
21567;SDS011;10944;42.590;12.630;2023-03-05T07:11:17;35.80;;;17.33;;
21567;SDS011;10944;42.590;12.630;2023-03-05T07:13:44;33.97;;;17.10;;
21567;SDS011;10944;42.590;12.630;2023-03-05T07:16:30;30.50;;;16.40;;
21567;SDS011;10944;42.590;12.630;2023-03-05T07:18:58;32.97;;;16.60;;
21567;SDS011;10944;42.590;12.630;2023-03-05T07:21:27;32.67;;;18.20;;
21567;SDS011;10944;42.590;12.630;2023-03-05T07:23:55;34.33;;;18.30;;
21567;SDS011;10944;42.590;12.630;2023-03-05T07:26:22;32.83;;;18.47;;
21567;SDS011;10944;42.590;12.630;2023-03-05T07:28:48;33.23;;;18.70;;
21567;SDS011;10944;42.590;12.630;2023-03-05T07:31:16;37.00;;;19.03;;
21567;SDS011;10944;42.590;12.630;2023-03-05T07:33:44;31.87;;;17.53;;
21567;SDS011;10944;42.590;12.630;2023-03-05T07:36:10;29.63;;;16.93;;
21567;SDS011;10944;42.590;12.630;2023-03-05T07:38:36;31.27;;;17.80;;
21567;SDS011;10944;42.590;12.630;2023-03-05T07:41:03;31.30;;;17.40;;
21567;SDS011;10944;42.590;12.630;2023-03-05T07:43:31;36.00;;;18.50;;
21567;SDS011;10944;42.590;12.630;2023-03-05T07:45:57;38.73;;;21.37;;
21567;SDS011;10944;42.590;12.630;2023-03-05T07:48:23;43.07;;;21.80;;
21567;SDS011;10944;42.590;12.630;2023-03-05T07:50:49;39.33;;;22.03;;
21567;SDS011;10944;42.590;12.630;2023-03-05T07:53:15;37.50;;;22.27;;
21567;SDS011;10944;42.590;12.630;2023-03-05T07:55:41;43.03;;;22.07;;
21567;SDS011;10944;42.590;12.630;2023-03-05T07:58:10;43.10;;;23.47;;
21567;SDS011;10944;42.590;12.630;2023-03-05T08:00:36;40.67;;;22.77;;
21567;SDS011;10944;42.590;12.630;2023-03-05T08:03:02;40.80;;;23.87;;
21567;SDS011;10944;42.590;12.630;2023-03-05T08:05:28;43.27;;;22.57;;
21567;SDS011;10944;42.590;12.630;2023-03-05T08:07:54;40.37;;;22.70;;
21567;SDS011;10944;42.590;12.630;2023-03-05T08:10:19;36.57;;;20.77;;
21567;SDS011;10944;42.590;12.630;2023-03-05T08:12:45;33.60;;;19.67;;
21567;SDS011;10944;42.590;12.630;2023-03-05T08:15:11;32.10;;;19.53;;
21567;SDS011;10944;42.590;12.630;2023-03-05T08:17:37;33.53;;;20.43;;
21567;SDS011;10944;42.590;12.630;2023-03-05T08:20:03;41.03;;;21.73;;
21567;SDS011;10944;42.590;12.630;2023-03-05T08:22:34;35.30;;;20.73;;
21567;SDS011;10944;42.590;12.630;2023-03-05T08:25:00;35.33;;;19.83;;
21567;SDS011;10944;42.590;12.630;2023-03-05T08:27:25;33.73;;;19.43;;
21567;SDS011;10944;42.590;12.630;2023-03-05T08:29:51;37.47;;;20.27;;
21567;SDS011;10944;42.590;12.630;2023-03-05T08:32:17;34.43;;;20.27;;
21567;SDS011;10944;42.590;12.630;2023-03-05T08:34:43;37.50;;;21.03;;
21567;SDS011;10944;42.590;12.630;2023-03-05T08:37:09;39.80;;;21.97;;
21567;SDS011;10944;42.590;12.630;2023-03-05T08:39:35;32.57;;;19.50;;
21567;SDS011;10944;42.590;12.630;2023-03-05T08:42:00;34.07;;;20.27;;
21567;SDS011;10944;42.590;12.630;2023-03-05T08:44:27;36.53;;;20.17;;
21567;SDS011;10944;42.590;12.630;2023-03-05T08:46:52;37.67;;;21.00;;
21567;SDS011;10944;42.590;12.630;2023-03-05T08:49:18;39.07;;;21.83;;
21567;SDS011;10944;42.590;12.630;2023-03-05T08:51:44;37.77;;;21.40;;
21567;SDS011;10944;42.590;12.630;2023-03-05T08:54:09;36.50;;;21.63;;
21567;SDS011;10944;42.590;12.630;2023-03-05T08:56:35;34.10;;;21.17;;
21567;SDS011;10944;42.590;12.630;2023-03-05T08:59:02;36.47;;;20.53;;
21567;SDS011;10944;42.590;12.630;2023-03-05T09:01:28;38.93;;;22.00;;
21567;SDS011;10944;42.590;12.630;2023-03-05T09:03:56;39.10;;;20.75;;
21567;SDS011;10944;42.590;12.630;2023-03-05T09:06:23;37.07;;;21.60;;
21567;SDS011;10944;42.590;12.630;2023-03-05T09:08:49;33.27;;;20.67;;
21567;SDS011;10944;42.590;12.630;2023-03-05T09:11:15;33.30;;;20.70;;
21567;SDS011;10944;42.590;12.630;2023-03-05T09:13:41;32.42;;;17.63;;
21567;SDS011;10944;42.590;12.630;2023-03-05T09:16:09;31.13;;;16.73;;
21567;SDS011;10944;42.590;12.630;2023-03-05T09:18:36;35.03;;;18.67;;
21567;SDS011;10944;42.590;12.630;2023-03-05T09:21:05;31.88;;;18.23;;
21567;SDS011;10944;42.590;12.630;2023-03-05T09:23:35;31.40;;;17.88;;
21567;SDS011;10944;42.590;12.630;2023-03-05T09:26:03;27.77;;;16.63;;
21567;SDS011;10944;42.590;12.630;2023-03-05T09:28:29;30.40;;;16.00;;
21567;SDS011;10944;42.590;12.630;2023-03-05T09:30:55;34.58;;;18.45;;
21567;SDS011;10944;42.590;12.630;2023-03-05T09:33:21;34.63;;;18.25;;
21567;SDS011;10944;42.590;12.630;2023-03-05T09:35:46;30.02;;;15.80;;
21567;SDS011;10944;42.590;12.630;2023-03-05T09:38:12;29.63;;;16.52;;
21567;SDS011;10944;42.590;12.630;2023-03-05T09:49:29;32.58;;;19.33;;
21567;SDS011;10944;42.590;12.630;2023-03-05T09:51:59;33.85;;;18.75;;
21567;SDS011;10944;42.590;12.630;2023-03-05T09:54:33;30.85;;;17.83;;
21567;SDS011;10944;42.590;12.630;2023-03-05T09:57:04;32.00;;;17.98;;
21567;SDS011;10944;42.590;12.630;2023-03-05T10:02:14;31.27;;;17.35;;
21567;SDS011;10944;42.590;12.630;2023-03-05T10:04:47;31.70;;;18.00;;
21567;SDS011;10944;42.590;12.630;2023-03-05T10:07:31;30.27;;;17.10;;
21567;SDS011;10944;42.590;12.630;2023-03-05T10:10:04;28.30;;;16.38;;
21567;SDS011;10944;42.590;12.630;2023-03-05T10:12:47;29.88;;;17.42;;
21567;SDS011;10944;42.590;12.630;2023-03-05T10:17:58;31.75;;;16.23;;
21567;SDS011;10944;42.590;12.630;2023-03-05T10:23:24;27.92;;;15.73;;
21567;SDS011;10944;42.590;12.630;2023-03-05T10:25:59;26.48;;;16.52;;
21567;SDS011;10944;42.590;12.630;2023-03-05T10:31:45;54.65;;;25.73;;
21567;SDS011;10944;42.590;12.630;2023-03-05T10:36:54;25.25;;;14.25;;
21567;SDS011;10944;42.590;12.630;2023-03-05T10:42:33;25.05;;;15.45;;
21567;SDS011;10944;42.590;12.630;2023-03-05T10:45:22;27.65;;;16.58;;
21567;SDS011;10944;42.590;12.630;2023-03-05T10:50:20;27.02;;;15.30;;
21567;SDS011;10944;42.590;12.630;2023-03-05T10:55:39;28.08;;;15.65;;
21567;SDS011;10944;42.590;12.630;2023-03-05T10:58:12;30.20;;;18.42;;
21567;SDS011;10944;42.590;12.630;2023-03-05T11:00:57;31.38;;;19.17;;
21567;SDS011;10944;42.590;12.630;2023-03-05T11:06:12;29.73;;;17.70;;
21567;SDS011;10944;42.590;12.630;2023-03-05T11:08:39;29.33;;;18.67;;
21567;SDS011;10944;42.590;12.630;2023-03-05T11:13:33;29.10;;;16.13;;
21567;SDS011;10944;42.590;12.630;2023-03-05T11:16:03;24.83;;;14.50;;
21567;SDS011;10944;42.590;12.630;2023-03-05T11:18:31;27.42;;;14.52;;
21567;SDS011;10944;42.590;12.630;2023-03-05T11:24:02;22.10;;;12.10;;
21567;SDS011;10944;42.590;12.630;2023-03-05T11:26:49;25.35;;;13.02;;
21567;SDS011;10944;42.590;12.630;2023-03-05T11:29:27;17.20;;;9.23;;
21567;SDS011;10944;42.590;12.630;2023-03-05T11:32:18;14.38;;;7.35;;
21567;SDS011;10944;42.590;12.630;2023-03-05T11:34:49;10.82;;;4.80;;
21567;SDS011;10944;42.590;12.630;2023-03-05T11:39:47;13.30;;;5.13;;
21567;SDS011;10944;42.590;12.630;2023-03-05T11:42:16;10.68;;;3.90;;
21567;SDS011;10944;42.590;12.630;2023-03-05T11:44:50;11.60;;;5.72;;
21567;SDS011;10944;42.590;12.630;2023-03-05T11:50:25;11.05;;;4.43;;
21567;SDS011;10944;42.590;12.630;2023-03-05T11:55:27;8.88;;;4.55;;
21567;SDS011;10944;42.590;12.630;2023-03-05T12:00:52;18.58;;;11.60;;
21567;SDS011;10944;42.590;12.630;2023-03-05T12:03:19;9.52;;;3.97;;
21567;SDS011;10944;42.590;12.630;2023-03-05T12:05:49;7.93;;;2.92;;
21567;SDS011;10944;42.590;12.630;2023-03-05T12:08:21;7.22;;;2.67;;
21567;SDS011;10944;42.590;12.630;2023-03-05T12:10:57;9.88;;;3.78;;
21567;SDS011;10944;42.590;12.630;2023-03-05T12:13:35;8.77;;;3.78;;
21567;SDS011;10944;42.590;12.630;2023-03-05T12:23:58;7.18;;;2.90;;
21567;SDS011;10944;42.590;12.630;2023-03-05T12:35:04;3.92;;;1.42;;
21567;SDS011;10944;42.590;12.630;2023-03-05T12:43:02;4.82;;;1.95;;
21567;SDS011;10944;42.590;12.630;2023-03-05T12:45:47;5.63;;;2.40;;
21567;SDS011;10944;42.590;12.630;2023-03-05T12:53:09;6.30;;;3.10;;
21567;SDS011;10944;42.590;12.630;2023-03-05T12:58:13;9.15;;;4.22;;
21567;SDS011;10944;42.590;12.630;2023-03-05T13:04:04;9.95;;;4.10;;
21567;SDS011;10944;42.590;12.630;2023-03-05T13:06:36;10.93;;;4.57;;
21567;SDS011;10944;42.590;12.630;2023-03-05T13:09:07;9.20;;;4.60;;
21567;SDS011;10944;42.590;12.630;2023-03-05T13:11:51;9.30;;;4.32;;
21567;SDS011;10944;42.590;12.630;2023-03-05T13:16:56;10.73;;;4.90;;
21567;SDS011;10944;42.590;12.630;2023-03-05T13:19:22;10.57;;;4.72;;
21567;SDS011;10944;42.590;12.630;2023-03-05T13:21:58;12.70;;;4.70;;
21567;SDS011;10944;42.590;12.630;2023-03-05T13:24:25;7.25;;;4.38;;
21567;SDS011;10944;42.590;12.630;2023-03-05T13:26:53;10.73;;;4.95;;
21567;SDS011;10944;42.590;12.630;2023-03-05T13:29:20;12.63;;;4.88;;
21567;SDS011;10944;42.590;12.630;2023-03-05T13:31:51;12.02;;;4.68;;
21567;SDS011;10944;42.590;12.630;2023-03-05T13:34:40;9.18;;;4.38;;
21567;SDS011;10944;42.590;12.630;2023-03-05T13:39:56;10.05;;;5.10;;
21567;SDS011;10944;42.590;12.630;2023-03-05T13:42:34;8.18;;;4.80;;
21567;SDS011;10944;42.590;12.630;2023-03-05T13:45:02;11.30;;;5.15;;
21567;SDS011;10944;42.590;12.630;2023-03-05T13:47:49;13.10;;;4.93;;
21567;SDS011;10944;42.590;12.630;2023-03-05T13:50:21;18.10;;;7.63;;
21567;SDS011;10944;42.590;12.630;2023-03-05T13:52:50;11.48;;;6.10;;
21567;SDS011;10944;42.590;12.630;2023-03-05T13:55:17;12.57;;;5.88;;
21567;SDS011;10944;42.590;12.630;2023-03-05T13:57:49;10.80;;;5.20;;
21567;SDS011;10944;42.590;12.630;2023-03-05T14:02:54;9.57;;;5.47;;
21567;SDS011;10944;42.590;12.630;2023-03-05T14:05:22;12.45;;;5.15;;
21567;SDS011;10944;42.590;12.630;2023-03-05T14:07:48;10.35;;;5.00;;
21567;SDS011;10944;42.590;12.630;2023-03-05T14:10:35;12.13;;;5.10;;
21567;SDS011;10944;42.590;12.630;2023-03-05T14:13:10;13.00;;;6.03;;
21567;SDS011;10944;42.590;12.630;2023-03-05T14:15:41;10.57;;;5.72;;
21567;SDS011;10944;42.590;12.630;2023-03-05T14:20:32;15.23;;;7.43;;
21567;SDS011;10944;42.590;12.630;2023-03-05T14:22:59;13.25;;;5.75;;
21567;SDS011;10944;42.590;12.630;2023-03-05T14:25:27;10.88;;;5.90;;
21567;SDS011;10944;42.590;12.630;2023-03-05T14:27:54;9.95;;;4.93;;
21567;SDS011;10944;42.590;12.630;2023-03-05T14:30:22;12.48;;;5.20;;
21567;SDS011;10944;42.590;12.630;2023-03-05T14:32:50;9.07;;;5.45;;
21567;SDS011;10944;42.590;12.630;2023-03-05T14:35:19;13.27;;;7.05;;
21567;SDS011;10944;42.590;12.630;2023-03-05T14:37:50;10.68;;;5.75;;
21567;SDS011;10944;42.590;12.630;2023-03-05T14:40:22;10.93;;;4.80;;
21567;SDS011;10944;42.590;12.630;2023-03-05T14:42:56;11.50;;;5.20;;
21567;SDS011;10944;42.590;12.630;2023-03-05T14:45:33;10.05;;;5.45;;
21567;SDS011;10944;42.590;12.630;2023-03-05T14:48:01;15.00;;;5.25;;
21567;SDS011;10944;42.590;12.630;2023-03-05T14:51:11;10.07;;;4.72;;
21567;SDS011;10944;42.590;12.630;2023-03-05T14:53:24;10.23;;;4.50;;
21567;SDS011;10944;42.590;12.630;2023-03-05T14:55:54;10.63;;;5.05;;
21567;SDS011;10944;42.590;12.630;2023-03-05T14:58:24;11.75;;;6.53;;
21567;SDS011;10944;42.590;12.630;2023-03-05T15:00:53;11.52;;;5.40;;
21567;SDS011;10944;42.590;12.630;2023-03-05T15:03:20;12.23;;;5.20;;
21567;SDS011;10944;42.590;12.630;2023-03-05T15:05:47;9.73;;;4.90;;
21567;SDS011;10944;42.590;12.630;2023-03-05T15:08:16;8.88;;;4.82;;
21567;SDS011;10944;42.590;12.630;2023-03-05T15:10:44;10.65;;;5.00;;
21567;SDS011;10944;42.590;12.630;2023-03-05T15:13:11;8.02;;;4.80;;
21567;SDS011;10944;42.590;12.630;2023-03-05T15:15:38;10.32;;;5.20;;
21567;SDS011;10944;42.590;12.630;2023-03-05T15:18:05;10.38;;;6.03;;
21567;SDS011;10944;42.590;12.630;2023-03-05T15:20:30;10.38;;;6.18;;
21567;SDS011;10944;42.590;12.630;2023-03-05T15:22:57;11.80;;;6.75;;
21567;SDS011;10944;42.590;12.630;2023-03-05T15:25:23;9.07;;;5.45;;
21567;SDS011;10944;42.590;12.630;2023-03-05T15:27:50;10.85;;;5.88;;
21567;SDS011;10944;42.590;12.630;2023-03-05T15:30:24;13.40;;;6.53;;
21567;SDS011;10944;42.590;12.630;2023-03-05T15:32:53;10.60;;;6.07;;
21567;SDS011;10944;42.590;12.630;2023-03-05T15:35:20;11.75;;;6.10;;
21567;SDS011;10944;42.590;12.630;2023-03-05T15:37:46;11.05;;;5.95;;
21567;SDS011;10944;42.590;12.630;2023-03-05T15:40:12;14.57;;;6.57;;
21567;SDS011;10944;42.590;12.630;2023-03-05T15:42:38;9.90;;;5.93;;
21567;SDS011;10944;42.590;12.630;2023-03-05T15:45:04;10.13;;;5.40;;
21567;SDS011;10944;42.590;12.630;2023-03-05T15:47:30;11.05;;;5.55;;
21567;SDS011;10944;42.590;12.630;2023-03-05T15:49:56;13.50;;;7.45;;
21567;SDS011;10944;42.590;12.630;2023-03-05T15:52:22;11.70;;;5.50;;
21567;SDS011;10944;42.590;12.630;2023-03-05T15:54:47;11.77;;;5.18;;
21567;SDS011;10944;42.590;12.630;2023-03-05T15:57:13;9.88;;;4.57;;
21567;SDS011;10944;42.590;12.630;2023-03-05T15:59:39;8.88;;;5.03;;
21567;SDS011;10944;42.590;12.630;2023-03-05T16:02:05;10.90;;;4.95;;